createdAt,value
2019-05-25T00:00:46.946Z,97346.52
2019-05-25T00:03:15.822Z,97344.14
2019-05-25T00:05:44.944Z,97346.05
2019-05-25T00:08:13.847Z,97341.67
2019-05-25T00:10:42.651Z,97341.95
2019-05-25T00:13:11.451Z,97342.91
2019-05-25T00:15:40.238Z,97346.63
2019-05-25T00:18:09.070Z,97341.84
2019-05-25T00:20:38.858Z,97345.78
2019-05-25T00:23:07.669Z,97341.16
2019-05-25T00:25:36.577Z,97338.38
2019-05-25T00:28:05.702Z,97336.69
2019-05-25T00:30:34.667Z,97334.19
2019-05-25T00:33:03.513Z,97339.32
2019-05-25T00:35:32.400Z,97334.89
2019-05-25T00:38:01.224Z,97330.31
2019-05-25T00:40:30.130Z,97330.19
2019-05-25T00:42:59.070Z,97331.03
2019-05-25T00:45:28.003Z,97327.03
2019-05-25T00:47:56.856Z,97334.92
2019-05-25T00:50:25.839Z,97330.02
2019-05-25T00:52:54.822Z,97333.00
2019-05-25T00:55:24.073Z,97337.51
2019-05-25T00:57:53.119Z,97339.11
2019-05-25T01:00:22.159Z,97336.32
2019-05-25T01:02:50.919Z,97335.36
2019-05-25T01:05:20.242Z,97334.75
2019-05-25T01:07:49.135Z,97337.39
2019-05-25T01:10:17.948Z,97338.70
2019-05-25T01:12:46.927Z,97343.97
2019-05-25T01:15:17.374Z,97343.31
2019-05-25T01:17:46.834Z,97344.05
2019-05-25T01:20:17.258Z,97349.59
2019-05-25T01:22:46.073Z,97346.52
2019-05-25T01:25:15.176Z,97348.52
2019-05-25T01:27:44.137Z,97346.72
2019-05-25T01:30:13.254Z,97355.20
2019-05-25T01:32:42.264Z,97347.48
2019-05-25T01:35:11.426Z,97348.08
2019-05-25T01:37:40.432Z,97344.85
2019-05-25T01:40:21.935Z,97349.05
2019-05-25T01:42:50.834Z,97343.78
2019-05-25T01:45:19.748Z,97350.59
2019-05-25T01:47:48.612Z,97345.20
2019-05-25T01:50:17.622Z,97342.27
2019-05-25T01:52:46.805Z,97338.44
2019-05-25T01:55:15.652Z,97339.16
2019-05-25T01:57:46.026Z,97336.22
2019-05-25T02:00:15.241Z,97334.75
2019-05-25T02:02:44.119Z,97340.48
2019-05-25T02:05:13.021Z,97341.57
2019-05-25T02:07:41.887Z,97344.48
2019-05-25T02:10:10.823Z,97338.89
2019-05-25T02:12:39.651Z,97336.98
2019-05-25T02:15:08.794Z,97341.13
2019-05-25T02:17:37.691Z,97344.98
2019-05-25T02:20:06.777Z,97344.06
2019-05-25T02:22:35.764Z,97347.53
2019-05-25T02:25:16.885Z,97346.24
2019-05-25T02:27:44.981Z,97348.87
2019-05-25T02:30:14.401Z,97346.75
2019-05-25T02:32:43.391Z,97345.81
2019-05-25T02:35:26.370Z,97339.63
2019-05-25T02:37:55.486Z,97343.72
2019-05-25T02:40:24.430Z,97341.59
2019-05-25T02:42:53.390Z,97342.45
2019-05-25T02:45:22.315Z,97343.52
2019-05-25T02:47:51.327Z,97338.55
2019-05-25T02:50:21.393Z,97342.27
2019-05-25T02:52:50.293Z,97345.86
2019-05-25T02:55:32.975Z,97346.60
2019-05-25T02:57:50.325Z,97343.16
2019-05-25T03:00:23.919Z,97345.64
2019-05-25T03:02:52.865Z,97342.55
2019-05-25T03:05:22.167Z,97339.47
2019-05-25T03:07:52.339Z,97342.68
2019-05-25T03:10:21.265Z,97347.11
2019-05-25T03:12:50.170Z,97345.69
2019-05-25T03:15:19.097Z,97345.91
2019-05-25T03:17:48.149Z,97346.76
2019-05-25T03:20:17.248Z,97355.83
2019-05-25T03:22:46.140Z,97352.62
2019-05-25T03:25:15.081Z,97359.77
2019-05-25T03:27:44.055Z,97352.48
2019-05-25T03:30:12.980Z,97353.44
2019-05-25T03:32:41.891Z,97357.15
2019-05-25T03:35:10.902Z,97360.47
2019-05-25T03:37:39.815Z,97350.23
2019-05-25T03:40:08.939Z,97360.36
2019-05-25T03:42:37.846Z,97362.77
2019-05-25T03:45:06.857Z,97360.00
2019-05-25T03:47:35.861Z,97358.69
2019-05-25T03:50:05.154Z,97358.09
2019-05-25T03:52:34.190Z,97361.20
2019-05-25T03:55:03.610Z,97363.82
2019-05-25T03:57:32.590Z,97361.78
2019-05-25T04:00:01.554Z,97360.97
2019-05-25T04:02:30.492Z,97359.99
2019-05-25T04:04:59.287Z,97362.39
2019-05-25T04:07:28.231Z,97362.61
2019-05-25T04:09:57.209Z,97370.52
2019-05-25T04:12:26.315Z,97366.68
2019-05-25T04:14:55.205Z,97361.42
2019-05-25T04:17:24.171Z,97362.73
2019-05-25T04:19:52.995Z,97361.52
2019-05-25T04:22:21.906Z,97365.34
2019-05-25T04:24:50.962Z,97367.00
2019-05-25T04:27:19.908Z,97368.30
2019-05-25T04:29:50.220Z,97376.88
2019-05-25T04:32:28.324Z,97372.56
2019-05-25T04:34:56.854Z,97371.75
2019-05-25T04:37:26.715Z,97375.78
2019-05-25T04:39:55.711Z,97376.12
2019-05-25T04:42:24.954Z,97379.45
2019-05-25T04:44:53.964Z,97374.41
2019-05-25T04:47:29.771Z,97379.17
2019-05-25T04:50:05.175Z,97380.09
2019-05-25T04:52:34.114Z,97392.41
2019-05-25T04:55:03.099Z,97391.07
2019-05-25T04:57:42.268Z,97398.09
2019-05-25T05:00:12.558Z,97397.70
2019-05-25T05:02:41.445Z,97398.64
2019-05-25T05:05:10.352Z,97395.89
2019-05-25T05:07:39.191Z,97400.97
2019-05-25T05:10:08.763Z,97399.95
2019-05-25T05:12:37.769Z,97385.65
2019-05-25T05:15:07.576Z,97385.05
2019-05-25T05:17:47.701Z,97388.27
2019-05-25T05:20:16.664Z,97382.13
2019-05-25T05:22:48.996Z,97378.98
2019-05-25T05:25:17.885Z,97381.95
2019-05-25T05:27:46.743Z,97379.11
2019-05-25T05:30:15.733Z,97377.89
2019-05-25T05:32:44.745Z,97383.93
2019-05-25T05:35:13.780Z,97380.32
2019-05-25T05:37:42.989Z,97379.98
2019-05-25T05:40:12.378Z,97384.85
2019-05-25T05:42:42.947Z,97379.42
2019-05-25T05:45:12.644Z,97386.89
2019-05-25T05:47:42.292Z,97395.70
2019-05-25T05:50:12.541Z,97395.26
2019-05-25T05:52:41.506Z,97398.85
2019-05-25T05:55:17.201Z,97397.89
2019-05-25T05:57:45.028Z,97406.75
2019-05-25T06:00:14.364Z,97400.28
2019-05-25T06:02:43.380Z,97395.44
2019-05-25T06:05:13.542Z,97405.59
2019-05-25T06:07:42.429Z,97398.51
2019-05-25T06:10:12.653Z,97398.35
2019-05-25T06:12:41.682Z,97408.83
2019-05-25T06:15:10.740Z,97408.43
2019-05-25T06:17:39.725Z,97416.16
2019-05-25T06:20:08.826Z,97406.17
2019-05-25T06:22:37.771Z,97408.47
2019-05-25T06:25:07.927Z,97412.69
2019-05-25T06:27:37.933Z,97421.78
2019-05-25T06:30:09.696Z,97422.62
2019-05-25T06:32:38.684Z,97415.09
2019-05-25T06:35:08.841Z,97419.77
2019-05-25T06:37:37.911Z,97413.30
2019-05-25T06:40:08.108Z,97417.44
2019-05-25T06:42:37.909Z,97415.42
2019-05-25T06:45:06.979Z,97420.58
2019-05-25T06:47:40.016Z,97415.72
2019-05-25T06:50:09.452Z,97422.73
2019-05-25T06:52:38.686Z,97418.63
2019-05-25T06:55:07.869Z,97419.08
2019-05-25T06:57:43.216Z,97416.69
2019-05-25T07:00:28.211Z,97420.77
2019-05-25T07:02:57.130Z,97421.83
2019-05-25T07:05:26.318Z,97424.41
2019-05-25T07:07:55.737Z,97421.88
2019-05-25T07:10:24.651Z,97419.88
2019-05-25T07:12:53.609Z,97430.25
2019-05-25T07:15:22.709Z,97430.32
2019-05-25T07:17:51.707Z,97430.71
2019-05-25T07:20:21.442Z,97428.91
2019-05-25T07:22:50.375Z,97432.80
2019-05-25T07:25:20.343Z,97433.00
2019-05-25T07:27:58.675Z,97433.61
2019-05-25T07:30:20.184Z,97437.55
2019-05-25T07:32:51.107Z,97433.53
2019-05-25T07:35:19.999Z,97435.97
2019-05-25T07:37:48.993Z,97438.55
2019-05-25T07:40:18.099Z,97446.55
2019-05-25T07:42:47.011Z,97442.95
2019-05-25T07:45:15.984Z,97437.92
2019-05-25T07:47:44.902Z,97444.36
2019-05-25T07:50:14.428Z,97435.59
2019-05-25T07:52:43.254Z,97429.97
2019-05-25T07:55:12.292Z,97433.00
2019-05-25T07:57:41.262Z,97429.71
2019-05-25T08:00:10.466Z,97435.48
2019-05-25T08:02:39.506Z,97437.05
2019-05-25T08:05:09.451Z,97441.84
2019-05-25T08:07:38.450Z,97436.01
2019-05-25T08:10:09.149Z,97432.72
2019-05-25T08:12:38.082Z,97438.80
2019-05-25T08:15:07.830Z,97437.56
2019-05-25T08:17:38.838Z,97442.36
2019-05-25T08:20:08.240Z,97439.59
2019-05-25T08:22:38.425Z,97440.39
2019-05-25T08:25:07.576Z,97446.00
2019-05-25T08:27:36.567Z,97448.45
2019-05-25T08:30:07.295Z,97444.02
2019-05-25T08:32:40.821Z,97446.33
2019-05-25T08:35:10.124Z,97447.49
2019-05-25T08:37:40.046Z,97450.58
2019-05-25T08:40:10.191Z,97444.41
2019-05-25T08:42:39.226Z,97448.93
2019-05-25T08:45:10.970Z,97451.00
2019-05-25T08:47:42.162Z,97446.61
2019-05-25T08:50:16.817Z,97452.12
2019-05-25T08:52:45.864Z,97448.19
2019-05-25T08:55:17.001Z,97446.28
2019-05-25T08:57:45.778Z,97445.77
2019-05-25T09:00:14.985Z,97438.72
2019-05-25T09:02:43.964Z,97439.94
2019-05-25T09:05:13.913Z,97443.93
2019-05-25T09:07:42.847Z,97447.25
2019-05-25T09:10:11.806Z,97442.41
2019-05-25T09:12:40.876Z,97447.92
2019-05-25T09:15:09.926Z,97442.02
2019-05-25T09:17:38.914Z,97443.55
2019-05-25T09:20:08.257Z,97438.98
2019-05-25T09:22:37.120Z,97444.70
2019-05-25T09:25:06.158Z,97445.41
2019-05-25T09:27:36.226Z,97451.58
2019-05-25T09:30:05.815Z,97443.94
2019-05-25T09:32:34.889Z,97446.66
2019-05-25T09:35:03.858Z,97433.92
2019-05-25T09:37:32.713Z,97433.41
2019-05-25T09:40:01.537Z,97434.09
2019-05-25T09:42:30.490Z,97432.75
2019-05-25T09:44:59.340Z,97429.14
2019-05-25T09:47:28.215Z,97436.12
2019-05-25T09:49:57.117Z,97432.72
2019-05-25T09:52:26.052Z,97433.49
2019-05-25T09:54:55.745Z,97435.34
2019-05-25T09:57:24.811Z,97424.06
2019-05-25T09:59:53.853Z,97426.70
2019-05-25T10:02:23.384Z,97429.17
2019-05-25T10:04:52.366Z,97425.61
2019-05-25T10:07:21.326Z,97421.59
2019-05-25T10:09:50.495Z,97424.44
2019-05-25T10:12:19.363Z,97421.16
2019-05-25T10:14:48.355Z,97417.89
2019-05-25T10:17:23.217Z,97419.21
2019-05-25T10:19:52.327Z,97415.47
2019-05-25T10:22:22.376Z,97408.22
2019-05-25T10:24:52.543Z,97408.49
2019-05-25T10:27:25.933Z,97406.14
2019-05-25T10:29:54.844Z,97409.70
2019-05-25T10:32:23.721Z,97404.61
2019-05-25T10:34:52.531Z,97402.20
2019-05-25T10:37:21.599Z,97403.02
2019-05-25T10:39:50.946Z,97402.58
2019-05-25T10:42:22.758Z,97405.89
2019-05-25T10:44:51.928Z,97399.72
2019-05-25T10:47:21.924Z,97398.06
2019-05-25T10:49:51.248Z,97398.75
2019-05-25T10:52:20.239Z,97389.28
2019-05-25T10:54:49.301Z,97386.15
2019-05-25T10:57:18.930Z,97384.88
2019-05-25T10:59:53.022Z,97385.08
2019-05-25T11:02:18.649Z,97386.98
2019-05-25T11:04:47.911Z,97384.81
2019-05-25T11:07:20.205Z,97385.57
2019-05-25T11:09:49.314Z,97376.21
2019-05-25T11:12:20.371Z,97372.97
2019-05-25T11:14:49.324Z,97372.39
2019-05-25T11:17:18.136Z,97376.19
2019-05-25T11:19:47.456Z,97373.41
2019-05-25T11:22:16.379Z,97373.14
2019-05-25T11:24:45.175Z,97369.73
2019-05-25T11:27:14.109Z,97368.77
2019-05-25T11:29:48.963Z,97369.75
2019-05-25T11:32:17.886Z,97373.54
2019-05-25T11:34:46.768Z,97372.34
2019-05-25T11:37:15.850Z,97376.48
2019-05-25T11:39:53.898Z,97369.02
2019-05-25T11:42:24.756Z,97374.11
2019-05-25T11:44:53.954Z,97375.64
2019-05-25T11:47:22.819Z,97374.20
2019-05-25T11:49:51.670Z,97367.21
2019-05-25T11:52:20.629Z,97369.70
2019-05-25T11:54:49.790Z,97375.37
2019-05-25T11:57:18.753Z,97371.66
2019-05-25T11:59:47.580Z,97376.81
2019-05-25T12:02:16.652Z,97364.17
2019-05-25T12:04:45.736Z,97362.51
2019-05-25T12:07:14.752Z,97360.00
2019-05-25T12:09:43.659Z,97361.84
2019-05-25T12:12:12.585Z,97363.70
2019-05-25T12:14:42.477Z,97358.67
2019-05-25T12:17:13.432Z,97354.65
2019-05-25T12:19:42.355Z,97349.20
2019-05-25T12:22:14.420Z,97341.63
2019-05-25T12:24:43.526Z,97339.97
2019-05-25T12:27:12.400Z,97331.72
2019-05-25T12:29:41.289Z,97329.48
2019-05-25T12:32:11.042Z,97324.71
2019-05-25T12:34:39.941Z,97329.26
2019-05-25T12:37:08.811Z,97325.92
2019-05-25T12:39:37.828Z,97320.91
2019-05-25T12:42:06.667Z,97318.75
2019-05-25T12:44:35.772Z,97320.16
2019-05-25T12:47:04.993Z,97313.90
2019-05-25T12:49:49.594Z,97320.73
2019-05-25T12:52:05.617Z,97318.89
2019-05-25T12:54:34.668Z,97311.94
2019-05-25T12:57:03.748Z,97311.86
2019-05-25T12:59:32.754Z,97311.57
2019-05-25T13:02:01.765Z,97310.28
2019-05-25T13:04:30.704Z,97319.53
2019-05-25T13:06:59.552Z,97322.95
2019-05-25T13:09:31.925Z,97334.08
2019-05-25T13:12:00.804Z,97335.47
2019-05-25T13:14:29.671Z,97349.16
2019-05-25T13:16:58.560Z,97352.62
2019-05-25T13:19:28.156Z,97355.25
2019-05-25T13:21:57.106Z,97354.89
2019-05-25T13:24:25.785Z,97354.00
2019-05-25T13:26:54.768Z,97354.48
2019-05-25T13:29:23.788Z,97349.30
2019-05-25T13:31:52.674Z,97348.52
2019-05-25T13:34:21.615Z,97354.94
2019-05-25T13:36:50.496Z,97353.85
2019-05-25T13:39:19.403Z,97349.92
2019-05-25T13:41:48.243Z,97357.94
2019-05-25T13:44:17.288Z,97353.20
2019-05-25T13:46:46.187Z,97349.44
2019-05-25T13:49:15.254Z,97350.88
2019-05-25T13:51:44.328Z,97343.20
2019-05-25T13:54:14.207Z,97345.87
2019-05-25T13:56:43.175Z,97346.19
2019-05-25T13:59:12.113Z,97347.78
2019-05-25T14:01:41.230Z,97339.30
2019-05-25T14:04:11.407Z,97349.37
2019-05-25T14:06:40.345Z,97354.55
2019-05-25T14:09:09.293Z,97351.63
2019-05-25T14:11:38.306Z,97355.77
2019-05-25T14:14:07.267Z,97348.87
2019-05-25T14:16:39.352Z,97348.87
2019-05-25T14:19:08.347Z,97346.81
2019-05-25T14:21:37.348Z,97340.89
2019-05-25T14:24:06.404Z,97339.36
2019-05-25T14:26:35.219Z,97336.55
2019-05-25T14:29:04.427Z,97339.39
2019-05-25T14:31:45.142Z,97342.09
2019-05-25T14:34:04.245Z,97336.04
2019-05-25T14:36:33.284Z,97331.55
2019-05-25T14:39:02.241Z,97327.91
2019-05-25T14:41:49.482Z,97327.44
2019-05-25T14:44:18.423Z,97326.83
2019-05-25T14:46:47.383Z,97328.16
2019-05-25T14:49:16.281Z,97324.19
2019-05-25T14:51:45.311Z,97322.42
2019-05-25T14:54:14.320Z,97328.01
2019-05-25T14:56:43.614Z,97325.12
2019-05-25T14:59:12.534Z,97326.19
2019-05-25T15:01:41.718Z,97324.92
2019-05-25T15:04:10.818Z,97325.91
2019-05-25T15:06:40.033Z,97324.64
2019-05-25T15:09:09.171Z,97319.39
2019-05-25T15:11:38.493Z,97328.61
2019-05-25T15:14:12.979Z,97322.69
2019-05-25T15:16:41.979Z,97315.19
2019-05-25T15:19:10.994Z,97317.47
2019-05-25T15:21:39.991Z,97318.50
2019-05-25T15:24:08.982Z,97318.40
2019-05-25T15:26:37.861Z,97310.13
2019-05-25T15:29:06.909Z,97318.37
2019-05-25T15:31:35.821Z,97313.13
2019-05-25T15:34:04.814Z,97319.83
2019-05-25T15:36:33.852Z,97320.38
2019-05-25T15:39:02.950Z,97321.64
2019-05-25T15:41:31.813Z,97318.80
2019-05-25T15:44:01.052Z,97316.63
2019-05-25T15:46:33.114Z,97309.16
2019-05-25T15:49:04.582Z,97313.74
2019-05-25T15:51:34.154Z,97316.83
2019-05-25T15:54:09.769Z,97308.42
2019-05-25T15:56:36.043Z,97316.44
2019-05-25T15:59:05.546Z,97303.05
2019-05-25T16:01:34.424Z,97303.34
2019-05-25T16:04:05.685Z,97302.40
2019-05-25T16:06:34.642Z,97310.02
2019-05-25T16:09:05.213Z,97307.84
2019-05-25T16:11:34.096Z,97310.36
2019-05-25T16:14:06.925Z,97314.73
2019-05-25T16:16:34.756Z,97321.86
2019-05-25T16:19:05.969Z,97321.11
2019-05-25T16:21:34.970Z,97317.02
2019-05-25T16:24:04.260Z,97322.76
2019-05-25T16:26:45.401Z,97323.77
2019-05-25T16:29:05.304Z,97327.51
2019-05-25T16:31:35.334Z,97328.45
2019-05-25T16:34:04.453Z,97330.48
2019-05-25T16:36:33.316Z,97329.86
2019-05-25T16:39:02.314Z,97333.88
2019-05-25T16:41:31.205Z,97339.31
2019-05-25T16:44:00.151Z,97343.61
2019-05-25T16:46:29.195Z,97345.02
2019-05-25T16:48:58.161Z,97348.07
2019-05-25T16:51:27.268Z,97349.42
2019-05-25T16:53:56.552Z,97352.89
2019-05-25T16:56:25.684Z,97348.67
2019-05-25T16:58:54.703Z,97349.71
2019-05-25T17:01:24.014Z,97356.05
2019-05-25T17:03:52.930Z,97359.42
2019-05-25T17:06:21.852Z,97357.47
2019-05-25T17:08:50.867Z,97366.16
2019-05-25T17:11:19.804Z,97369.16
2019-05-25T17:13:48.719Z,97362.50
2019-05-25T17:16:17.472Z,97370.86
2019-05-25T17:18:46.388Z,97368.27
2019-05-25T17:21:15.234Z,97379.25
2019-05-25T17:23:44.202Z,97372.34
2019-05-25T17:26:13.064Z,97376.39
2019-05-25T17:28:41.899Z,97367.46
2019-05-25T17:31:11.125Z,97378.98
2019-05-25T17:33:46.124Z,97379.00
2019-05-25T17:36:13.118Z,97381.19
2019-05-25T17:38:42.104Z,97387.16
2019-05-25T17:41:11.624Z,97394.48
2019-05-25T17:43:40.659Z,97396.84
2019-05-25T17:46:09.660Z,97395.82
2019-05-25T17:48:38.707Z,97399.48
2019-05-25T17:51:07.675Z,97399.83
2019-05-25T17:53:36.763Z,97398.19
2019-05-25T17:56:06.145Z,97401.84
2019-05-25T17:58:35.140Z,97403.17
2019-05-25T18:01:04.460Z,97395.20
2019-05-25T18:03:33.365Z,97401.84
2019-05-25T18:06:02.453Z,97403.84
2019-05-25T18:08:31.467Z,97401.82
2019-05-25T18:11:00.432Z,97404.66
2019-05-25T18:13:29.414Z,97409.80
2019-05-25T18:15:59.531Z,97410.27
2019-05-25T18:18:28.811Z,97418.39
2019-05-25T18:20:57.793Z,97412.90
2019-05-25T18:23:26.832Z,97414.56
2019-05-25T18:25:55.862Z,97411.85
2019-05-25T18:28:24.716Z,97412.84
2019-05-25T18:30:53.638Z,97408.02
2019-05-25T18:33:22.730Z,97408.02
2019-05-25T18:35:51.824Z,97412.84
2019-05-25T18:38:20.853Z,97416.94
2019-05-25T18:40:49.866Z,97414.77
2019-05-25T18:43:18.925Z,97414.59
2019-05-25T18:45:47.937Z,97417.05
2019-05-25T18:48:17.029Z,97422.83
2019-05-25T18:50:46.284Z,97427.80
2019-05-25T18:53:15.320Z,97422.30
2019-05-25T18:55:44.295Z,97423.91
2019-05-25T18:58:13.753Z,97424.54
2019-05-25T19:00:43.813Z,97430.33
2019-05-25T19:03:13.385Z,97427.13
2019-05-25T19:05:42.274Z,97429.91
2019-05-25T19:08:11.184Z,97428.18
2019-05-25T19:10:40.252Z,97425.36
2019-05-25T19:13:09.374Z,97430.09
2019-05-25T19:15:38.452Z,97430.78
2019-05-25T19:18:07.620Z,97437.98
2019-05-25T19:20:36.570Z,97433.08
2019-05-25T19:23:05.589Z,97440.24
2019-05-25T19:25:37.922Z,97440.39
2019-05-25T19:28:07.298Z,97444.00
2019-05-25T19:30:36.184Z,97443.76
2019-05-25T19:33:05.316Z,97449.31
2019-05-25T19:35:34.272Z,97450.78
2019-05-25T19:38:03.240Z,97454.16
2019-05-25T19:40:32.327Z,97460.28
2019-05-25T19:43:01.356Z,97463.05
2019-05-25T19:45:32.740Z,97467.27
2019-05-25T19:48:01.421Z,97460.80
2019-05-25T19:50:30.554Z,97461.29
2019-05-25T19:52:59.712Z,97465.67
2019-05-25T19:55:28.980Z,97463.94
2019-05-25T19:57:58.023Z,97463.97
2019-05-25T20:00:27.091Z,97464.87
2019-05-25T20:02:56.075Z,97468.23
2019-05-25T20:05:25.179Z,97473.61
2019-05-25T20:07:54.237Z,97473.01
2019-05-25T20:10:23.663Z,97477.64
2019-05-25T20:12:52.673Z,97477.47
2019-05-25T20:15:21.749Z,97484.56
2019-05-25T20:17:50.824Z,97488.16
2019-05-25T20:20:20.014Z,97487.59
2019-05-25T20:22:49.062Z,97493.60
2019-05-25T20:25:18.235Z,97493.91
2019-05-25T20:27:51.205Z,97490.86
2019-05-25T20:30:20.094Z,97499.05
2019-05-25T20:32:49.120Z,97496.83
2019-05-25T20:35:32.280Z,97497.88
2019-05-25T20:37:50.878Z,97496.62
2019-05-25T20:40:20.031Z,97494.76
2019-05-25T20:42:49.043Z,97499.11
2019-05-25T20:45:19.517Z,97494.32
2019-05-25T20:47:48.399Z,97497.22
2019-05-25T20:50:18.925Z,97493.45
2019-05-25T20:52:47.791Z,97502.62
2019-05-25T20:55:18.177Z,97507.31
2019-05-25T20:57:47.252Z,97508.98
2019-05-25T21:00:16.513Z,97507.83
2019-05-25T21:03:02.006Z,97509.47
2019-05-25T21:05:16.571Z,97516.77
2019-05-25T21:07:45.635Z,97515.45
2019-05-25T21:10:15.931Z,97516.28
2019-05-25T21:12:46.985Z,97515.20
2019-05-25T21:15:16.108Z,97521.63
2019-05-25T21:17:45.208Z,97517.31
2019-05-25T21:20:14.525Z,97521.49
2019-05-25T21:22:44.598Z,97522.10
2019-05-25T21:25:13.735Z,97525.22
2019-05-25T21:27:44.042Z,97524.80
2019-05-25T21:30:13.307Z,97521.20
2019-05-25T21:32:42.324Z,97531.03
2019-05-25T21:35:12.313Z,97531.33
2019-05-25T21:37:41.541Z,97532.52
2019-05-25T21:40:10.521Z,97529.53
2019-05-25T21:42:39.403Z,97532.88
2019-05-25T21:45:08.560Z,97531.56
2019-05-25T21:47:37.481Z,97533.84
2019-05-25T21:50:08.582Z,97533.80
2019-05-25T21:52:38.421Z,97538.16
2019-05-25T21:55:07.589Z,97537.61
2019-05-25T21:57:38.386Z,97537.50
2019-05-25T22:00:10.192Z,97536.16
2019-05-25T22:02:39.182Z,97535.09
2019-05-25T22:05:08.177Z,97540.64
2019-05-25T22:07:37.243Z,97535.90
2019-05-25T22:10:06.456Z,97540.86
2019-05-25T22:12:35.577Z,97533.44
2019-05-25T22:15:04.807Z,97541.34
2019-05-25T22:17:33.863Z,97541.42
2019-05-25T22:20:02.825Z,97545.60
2019-05-25T22:22:31.855Z,97541.52
2019-05-25T22:25:00.874Z,97544.31
2019-05-25T22:27:29.799Z,97543.11
2019-05-25T22:29:58.684Z,97551.44
2019-05-25T22:32:27.573Z,97552.77
2019-05-25T22:34:56.470Z,97553.44
2019-05-25T22:37:25.461Z,97562.42
2019-05-25T22:39:54.284Z,97560.21
2019-05-25T22:42:23.197Z,97565.36
2019-05-25T22:44:52.303Z,97560.49
2019-05-25T22:47:21.194Z,97564.88
2019-05-25T22:49:50.037Z,97570.63
2019-05-25T22:52:18.955Z,97574.30
2019-05-25T22:54:48.949Z,97568.84
2019-05-25T22:57:17.836Z,97572.43
2019-05-25T22:59:46.700Z,97569.72
2019-05-25T23:02:15.538Z,97570.80
2019-05-25T23:04:44.633Z,97568.05
2019-05-25T23:07:13.568Z,97564.45
2019-05-25T23:09:45.458Z,97564.58
2019-05-25T23:12:14.318Z,97562.30
2019-05-25T23:14:43.218Z,97560.62
2019-05-25T23:17:12.188Z,97563.61
2019-05-25T23:19:42.248Z,97559.66
2019-05-25T23:22:11.721Z,97554.23
2019-05-25T23:24:40.570Z,97563.33
2019-05-25T23:27:09.463Z,97562.24
2019-05-25T23:29:38.531Z,97565.80
2019-05-25T23:32:07.525Z,97563.03
2019-05-25T23:34:37.550Z,97558.23
2019-05-25T23:37:14.541Z,97558.23
2019-05-25T23:39:37.500Z,97565.54
2019-05-25T23:42:06.362Z,97564.34
2019-05-25T23:44:42.314Z,97559.08
2019-05-25T23:47:13.302Z,97556.20
2019-05-25T23:49:42.160Z,97562.59
2019-05-25T23:52:12.222Z,97559.96
2019-05-25T23:54:47.064Z,97560.45
2019-05-25T23:57:16.953Z,97554.77
2019-05-25T23:59:45.808Z,97558.01
